sensor_id;sensor_type;location;lat;lon;timestamp;P1;durP1;ratioP1;P2;durP2;ratioP2
363;SDS011;173;48.718;9.274;2022-07-22T00:00:54;8.30;;;6.70;;
363;SDS011;173;48.718;9.274;2022-07-22T00:03:26;6.87;;;6.23;;
363;SDS011;173;48.718;9.274;2022-07-22T00:05:58;8.20;;;6.35;;
363;SDS011;173;48.718;9.274;2022-07-22T00:08:30;6.90;;;6.30;;
363;SDS011;173;48.718;9.274;2022-07-22T00:11:03;7.50;;;6.90;;
363;SDS011;173;48.718;9.274;2022-07-22T00:13:36;7.95;;;6.10;;
363;SDS011;173;48.718;9.274;2022-07-22T00:16:06;7.20;;;6.60;;
363;SDS011;173;48.718;9.274;2022-07-22T00:18:38;8.10;;;7.40;;
363;SDS011;173;48.718;9.274;2022-07-22T00:21:10;10.90;;;9.90;;
363;SDS011;173;48.718;9.274;2022-07-22T00:23:42;8.55;;;7.85;;
363;SDS011;173;48.718;9.274;2022-07-22T00:26:15;9.15;;;8.25;;
363;SDS011;173;48.718;9.274;2022-07-22T00:28:47;8.70;;;7.90;;
363;SDS011;173;48.718;9.274;2022-07-22T00:31:19;7.95;;;6.75;;
363;SDS011;173;48.718;9.274;2022-07-22T00:33:51;7.50;;;6.80;;
363;SDS011;173;48.718;9.274;2022-07-22T00:36:23;8.30;;;7.50;;
363;SDS011;173;48.718;9.274;2022-07-22T00:38:56;9.60;;;7.90;;
363;SDS011;173;48.718;9.274;2022-07-22T00:41:28;7.20;;;6.50;;
363;SDS011;173;48.718;9.274;2022-07-22T00:44:01;7.00;;;6.40;;
363;SDS011;173;48.718;9.274;2022-07-22T00:46:37;7.85;;;7.25;;
363;SDS011;173;48.718;9.274;2022-07-22T00:49:09;7.90;;;7.10;;
363;SDS011;173;48.718;9.274;2022-07-22T00:51:42;9.20;;;7.35;;
363;SDS011;173;48.718;9.274;2022-07-22T00:54:15;8.65;;;7.90;;
363;SDS011;173;48.718;9.274;2022-07-22T00:56:47;8.13;;;7.33;;
363;SDS011;173;48.718;9.274;2022-07-22T00:59:20;8.75;;;7.55;;
363;SDS011;173;48.718;9.274;2022-07-22T01:01:51;7.70;;;6.90;;
363;SDS011;173;48.718;9.274;2022-07-22T01:04:21;8.45;;;7.75;;
363;SDS011;173;48.718;9.274;2022-07-22T01:06:53;9.00;;;7.70;;
363;SDS011;173;48.718;9.274;2022-07-22T01:09:25;9.10;;;6.60;;
363;SDS011;173;48.718;9.274;2022-07-22T01:11:57;7.80;;;7.00;;
363;SDS011;173;48.718;9.274;2022-07-22T01:14:31;8.65;;;7.85;;
363;SDS011;173;48.718;9.274;2022-07-22T01:19:35;7.95;;;7.25;;
363;SDS011;173;48.718;9.274;2022-07-22T01:22:07;8.20;;;7.45;;
363;SDS011;173;48.718;9.274;2022-07-22T01:24:39;8.50;;;7.70;;
363;SDS011;173;48.718;9.274;2022-07-22T01:27:12;8.60;;;7.80;;
363;SDS011;173;48.718;9.274;2022-07-22T01:29:44;7.60;;;6.90;;
363;SDS011;173;48.718;9.274;2022-07-22T01:32:16;7.27;;;6.67;;
363;SDS011;173;48.718;9.274;2022-07-22T01:34:48;8.20;;;7.50;;
363;SDS011;173;48.718;9.274;2022-07-22T01:37:21;7.65;;;7.00;;
363;SDS011;173;48.718;9.274;2022-07-22T01:39:51;7.60;;;6.90;;
363;SDS011;173;48.718;9.274;2022-07-22T01:42:22;7.90;;;7.10;;
363;SDS011;173;48.718;9.274;2022-07-22T01:44:54;10.25;;;9.15;;
363;SDS011;173;48.718;9.274;2022-07-22T01:47:26;8.00;;;7.20;;
363;SDS011;173;48.718;9.274;2022-07-22T01:49:58;8.60;;;7.75;;
363;SDS011;173;48.718;9.274;2022-07-22T01:52:29;9.00;;;8.10;;
363;SDS011;173;48.718;9.274;2022-07-22T01:56:25;8.90;;;7.60;;
363;SDS011;173;48.718;9.274;2022-07-22T01:58:57;7.80;;;7.10;;
363;SDS011;173;48.718;9.274;2022-07-22T02:01:30;8.60;;;7.80;;
363;SDS011;173;48.718;9.274;2022-07-22T02:04:02;7.80;;;7.10;;
363;SDS011;173;48.718;9.274;2022-07-22T02:06:34;8.50;;;7.70;;
363;SDS011;173;48.718;9.274;2022-07-22T02:09:04;8.40;;;7.60;;
363;SDS011;173;48.718;9.274;2022-07-22T02:11:37;9.30;;;8.40;;
363;SDS011;173;48.718;9.274;2022-07-22T02:14:09;8.80;;;8.00;;
363;SDS011;173;48.718;9.274;2022-07-22T02:16:41;8.65;;;7.85;;
363;SDS011;173;48.718;9.274;2022-07-22T02:19:13;8.70;;;7.80;;
363;SDS011;173;48.718;9.274;2022-07-22T02:21:45;8.05;;;7.10;;
363;SDS011;173;48.718;9.274;2022-07-22T02:24:18;8.55;;;7.55;;
363;SDS011;173;48.718;9.274;2022-07-22T02:26:48;9.90;;;7.80;;
363;SDS011;173;48.718;9.274;2022-07-22T02:29:19;8.55;;;7.25;;
363;SDS011;173;48.718;9.274;2022-07-22T02:31:51;8.15;;;7.35;;
363;SDS011;173;48.718;9.274;2022-07-22T02:34:24;8.60;;;7.70;;
363;SDS011;173;48.718;9.274;2022-07-22T02:36:56;9.00;;;8.10;;
363;SDS011;173;48.718;9.274;2022-07-22T02:39:28;9.20;;;8.30;;
363;SDS011;173;48.718;9.274;2022-07-22T02:42:01;8.40;;;7.60;;
363;SDS011;173;48.718;9.274;2022-07-22T02:44:33;8.70;;;7.90;;
363;SDS011;173;48.718;9.274;2022-07-22T02:47:05;7.90;;;7.20;;
363;SDS011;173;48.718;9.274;2022-07-22T02:49:40;8.80;;;7.90;;
363;SDS011;173;48.718;9.274;2022-07-22T02:52:12;8.75;;;8.05;;
363;SDS011;173;48.718;9.274;2022-07-22T02:54:44;8.90;;;7.45;;
363;SDS011;173;48.718;9.274;2022-07-22T02:57:16;8.10;;;7.50;;
363;SDS011;173;48.718;9.274;2022-07-22T02:59:56;8.15;;;7.50;;
363;SDS011;173;48.718;9.274;2022-07-22T03:02:28;8.90;;;8.10;;
363;SDS011;173;48.718;9.274;2022-07-22T03:05:02;9.10;;;8.20;;
363;SDS011;173;48.718;9.274;2022-07-22T03:07:38;8.00;;;7.30;;
363;SDS011;173;48.718;9.274;2022-07-22T03:10:10;9.10;;;8.20;;
363;SDS011;173;48.718;9.274;2022-07-22T03:12:42;8.90;;;8.10;;
363;SDS011;173;48.718;9.274;2022-07-22T03:15:14;11.75;;;7.55;;
363;SDS011;173;48.718;9.274;2022-07-22T03:17:46;8.70;;;7.90;;
363;SDS011;173;48.718;9.274;2022-07-22T03:20:18;7.60;;;6.90;;
363;SDS011;173;48.718;9.274;2022-07-22T03:22:50;8.80;;;7.90;;
363;SDS011;173;48.718;9.274;2022-07-22T03:25:22;8.30;;;7.60;;
363;SDS011;173;48.718;9.274;2022-07-22T03:27:56;8.90;;;8.00;;
363;SDS011;173;48.718;9.274;2022-07-22T03:30:28;8.95;;;7.75;;
363;SDS011;173;48.718;9.274;2022-07-22T03:33:00;11.30;;;8.35;;
363;SDS011;173;48.718;9.274;2022-07-22T03:35:33;11.00;;;10.00;;
363;SDS011;173;48.718;9.274;2022-07-22T03:38:05;11.00;;;9.00;;
363;SDS011;173;48.718;9.274;2022-07-22T03:40:35;8.60;;;7.80;;
363;SDS011;173;48.718;9.274;2022-07-22T03:43:07;9.65;;;8.75;;
363;SDS011;173;48.718;9.274;2022-07-22T03:45:39;9.05;;;8.25;;
363;SDS011;173;48.718;9.274;2022-07-22T03:48:11;8.60;;;7.80;;
363;SDS011;173;48.718;9.274;2022-07-22T03:50:44;9.80;;;8.80;;
363;SDS011;173;48.718;9.274;2022-07-22T03:53:16;9.25;;;8.30;;
363;SDS011;173;48.718;9.274;2022-07-22T03:55:47;9.90;;;9.10;;
363;SDS011;173;48.718;9.274;2022-07-22T03:58:19;11.10;;;10.00;;
363;SDS011;173;48.718;9.274;2022-07-22T04:00:52;11.05;;;9.95;;
363;SDS011;173;48.718;9.274;2022-07-22T04:03:24;10.40;;;9.40;;
363;SDS011;173;48.718;9.274;2022-07-22T04:05:56;10.20;;;9.20;;
363;SDS011;173;48.718;9.274;2022-07-22T04:08:29;10.60;;;9.60;;
363;SDS011;173;48.718;9.274;2022-07-22T04:11:01;9.00;;;8.20;;
363;SDS011;173;48.718;9.274;2022-07-22T04:13:34;9.60;;;8.00;;
363;SDS011;173;48.718;9.274;2022-07-22T04:16:06;9.70;;;8.80;;
363;SDS011;173;48.718;9.274;2022-07-22T04:18:38;9.80;;;8.90;;
363;SDS011;173;48.718;9.274;2022-07-22T04:21:10;9.00;;;8.20;;
363;SDS011;173;48.718;9.274;2022-07-22T04:23:43;8.60;;;7.90;;
363;SDS011;173;48.718;9.274;2022-07-22T04:26:15;8.80;;;7.90;;
363;SDS011;173;48.718;9.274;2022-07-22T04:28:47;10.90;;;8.55;;
363;SDS011;173;48.718;9.274;2022-07-22T04:31:19;9.40;;;8.60;;
363;SDS011;173;48.718;9.274;2022-07-22T04:33:53;14.10;;;8.70;;
363;SDS011;173;48.718;9.274;2022-07-22T04:36:24;10.90;;;8.90;;
363;SDS011;173;48.718;9.274;2022-07-22T04:38:54;8.00;;;7.20;;
363;SDS011;173;48.718;9.274;2022-07-22T04:41:26;8.65;;;7.85;;
363;SDS011;173;48.718;9.274;2022-07-22T04:43:58;7.87;;;7.17;;
363;SDS011;173;48.718;9.274;2022-07-22T04:46:30;9.40;;;8.50;;
363;SDS011;173;48.718;9.274;2022-07-22T04:49:02;9.60;;;8.80;;
363;SDS011;173;48.718;9.274;2022-07-22T04:51:34;9.45;;;8.45;;
363;SDS011;173;48.718;9.274;2022-07-22T04:54:06;8.70;;;7.80;;
363;SDS011;173;48.718;9.274;2022-07-22T04:56:38;8.70;;;7.90;;
363;SDS011;173;48.718;9.274;2022-07-22T04:59:10;9.47;;;8.57;;
363;SDS011;173;48.718;9.274;2022-07-22T05:01:42;9.10;;;8.20;;
363;SDS011;173;48.718;9.274;2022-07-22T05:04:15;10.20;;;9.10;;
363;SDS011;173;48.718;9.274;2022-07-22T05:06:47;10.10;;;7.50;;
363;SDS011;173;48.718;9.274;2022-07-22T05:09:19;9.00;;;8.20;;
363;SDS011;173;48.718;9.274;2022-07-22T05:11:51;9.50;;;8.60;;
363;SDS011;173;48.718;9.274;2022-07-22T05:14:23;10.75;;;9.70;;
363;SDS011;173;48.718;9.274;2022-07-22T05:16:55;10.00;;;9.00;;
363;SDS011;173;48.718;9.274;2022-07-22T05:19:28;9.25;;;8.35;;
363;SDS011;173;48.718;9.274;2022-07-22T05:22:00;10.50;;;9.50;;
363;SDS011;173;48.718;9.274;2022-07-22T05:24:32;9.50;;;8.60;;
363;SDS011;173;48.718;9.274;2022-07-22T05:27:04;8.70;;;7.90;;
363;SDS011;173;48.718;9.274;2022-07-22T05:29:36;9.85;;;9.00;;
363;SDS011;173;48.718;9.274;2022-07-22T05:32:08;10.75;;;8.75;;
363;SDS011;173;48.718;9.274;2022-07-22T05:34:40;12.40;;;9.80;;
363;SDS011;173;48.718;9.274;2022-07-22T05:37:13;11.20;;;9.90;;
363;SDS011;173;48.718;9.274;2022-07-22T05:39:45;12.80;;;11.70;;
363;SDS011;173;48.718;9.274;2022-07-22T05:42:17;11.30;;;10.20;;
363;SDS011;173;48.718;9.274;2022-07-22T05:44:49;11.60;;;9.90;;
363;SDS011;173;48.718;9.274;2022-07-22T05:47:21;12.30;;;11.20;;
363;SDS011;173;48.718;9.274;2022-07-22T05:49:53;10.30;;;9.30;;
363;SDS011;173;48.718;9.274;2022-07-22T05:52:25;13.05;;;11.30;;
363;SDS011;173;48.718;9.274;2022-07-22T05:55:04;11.80;;;10.60;;
363;SDS011;173;48.718;9.274;2022-07-22T05:57:32;11.00;;;10.00;;
363;SDS011;173;48.718;9.274;2022-07-22T06:00:05;12.00;;;10.80;;
363;SDS011;173;48.718;9.274;2022-07-22T06:02:38;11.60;;;10.40;;
363;SDS011;173;48.718;9.274;2022-07-22T06:05:10;10.05;;;9.25;;
363;SDS011;173;48.718;9.274;2022-07-22T06:07:42;13.20;;;10.20;;
363;SDS011;173;48.718;9.274;2022-07-22T06:10:14;12.20;;;10.40;;
363;SDS011;173;48.718;9.274;2022-07-22T06:12:46;12.45;;;9.95;;
363;SDS011;173;48.718;9.274;2022-07-22T06:15:19;11.15;;;10.05;;
363;SDS011;173;48.718;9.274;2022-07-22T06:17:51;12.40;;;10.65;;
363;SDS011;173;48.718;9.274;2022-07-22T06:20:23;15.90;;;11.10;;
363;SDS011;173;48.718;9.274;2022-07-22T06:22:55;11.05;;;10.15;;
363;SDS011;173;48.718;9.274;2022-07-22T06:25:28;11.10;;;10.10;;
363;SDS011;173;48.718;9.274;2022-07-22T06:27:59;12.60;;;11.40;;
363;SDS011;173;48.718;9.274;2022-07-22T06:30:32;12.95;;;10.50;;
363;SDS011;173;48.718;9.274;2022-07-22T06:33:04;12.00;;;10.70;;
363;SDS011;173;48.718;9.274;2022-07-22T06:35:40;9.90;;;9.00;;
363;SDS011;173;48.718;9.274;2022-07-22T06:38:12;12.60;;;11.00;;
363;SDS011;173;48.718;9.274;2022-07-22T06:40:44;11.90;;;10.70;;
363;SDS011;173;48.718;9.274;2022-07-22T06:43:16;11.30;;;10.20;;
363;SDS011;173;48.718;9.274;2022-07-22T06:45:48;15.80;;;10.70;;
363;SDS011;173;48.718;9.274;2022-07-22T06:48:20;11.50;;;10.30;;
363;SDS011;173;48.718;9.274;2022-07-22T06:50:52;11.75;;;10.65;;
363;SDS011;173;48.718;9.274;2022-07-22T06:53:25;10.40;;;9.50;;
363;SDS011;173;48.718;9.274;2022-07-22T06:55:57;11.80;;;10.60;;
363;SDS011;173;48.718;9.274;2022-07-22T06:58:29;13.20;;;12.10;;
363;SDS011;173;48.718;9.274;2022-07-22T07:01:01;11.55;;;10.45;;
363;SDS011;173;48.718;9.274;2022-07-22T07:03:33;10.25;;;9.20;;
363;SDS011;173;48.718;9.274;2022-07-22T07:06:06;11.10;;;10.00;;
363;SDS011;173;48.718;9.274;2022-07-22T07:08:40;11.70;;;10.50;;
363;SDS011;173;48.718;9.274;2022-07-22T07:11:12;10.80;;;9.80;;
363;SDS011;173;48.718;9.274;2022-07-22T07:13:44;12.25;;;11.15;;
363;SDS011;173;48.718;9.274;2022-07-22T07:16:17;9.90;;;9.00;;
363;SDS011;173;48.718;9.274;2022-07-22T07:18:49;9.90;;;9.00;;
363;SDS011;173;48.718;9.274;2022-07-22T07:21:21;10.10;;;9.30;;
363;SDS011;173;48.718;9.274;2022-07-22T07:23:53;11.00;;;9.90;;
363;SDS011;173;48.718;9.274;2022-07-22T07:26:27;12.05;;;10.95;;
363;SDS011;173;48.718;9.274;2022-07-22T07:28:59;10.10;;;9.20;;
363;SDS011;173;48.718;9.274;2022-07-22T07:31:32;9.80;;;8.90;;
363;SDS011;173;48.718;9.274;2022-07-22T07:34:04;10.47;;;9.47;;
363;SDS011;173;48.718;9.274;2022-07-22T07:36:36;9.90;;;9.00;;
363;SDS011;173;48.718;9.274;2022-07-22T07:39:08;9.00;;;8.20;;
363;SDS011;173;48.718;9.274;2022-07-22T07:41:40;9.30;;;8.40;;
363;SDS011;173;48.718;9.274;2022-07-22T07:44:13;9.70;;;8.80;;
363;SDS011;173;48.718;9.274;2022-07-22T07:46:45;10.93;;;9.83;;
363;SDS011;173;48.718;9.274;2022-07-22T07:49:17;9.05;;;8.25;;
363;SDS011;173;48.718;9.274;2022-07-22T07:51:49;9.05;;;8.15;;
363;SDS011;173;48.718;9.274;2022-07-22T07:54:21;8.80;;;7.90;;
363;SDS011;173;48.718;9.274;2022-07-22T07:56:53;9.60;;;8.70;;
363;SDS011;173;48.718;9.274;2022-07-22T07:59:26;8.20;;;7.40;;
363;SDS011;173;48.718;9.274;2022-07-22T08:01:58;8.70;;;8.00;;
363;SDS011;173;48.718;9.274;2022-07-22T08:04:30;7.90;;;7.30;;
363;SDS011;173;48.718;9.274;2022-07-22T08:07:03;8.55;;;7.85;;
363;SDS011;173;48.718;9.274;2022-07-22T08:09:36;8.65;;;7.85;;
363;SDS011;173;48.718;9.274;2022-07-22T08:12:08;8.20;;;7.40;;
363;SDS011;173;48.718;9.274;2022-07-22T08:14:41;9.00;;;8.20;;
363;SDS011;173;48.718;9.274;2022-07-22T08:17:13;7.45;;;6.85;;
363;SDS011;173;48.718;9.274;2022-07-22T08:19:45;8.65;;;7.85;;
363;SDS011;173;48.718;9.274;2022-07-22T08:22:18;8.55;;;6.95;;
363;SDS011;173;48.718;9.274;2022-07-22T08:24:50;8.60;;;7.75;;
363;SDS011;173;48.718;9.274;2022-07-22T08:27:22;8.05;;;7.35;;
363;SDS011;173;48.718;9.274;2022-07-22T08:29:54;7.80;;;7.10;;
363;SDS011;173;48.718;9.274;2022-07-22T08:32:28;9.00;;;8.30;;
363;SDS011;173;48.718;9.274;2022-07-22T08:35:01;8.95;;;8.15;;
363;SDS011;173;48.718;9.274;2022-07-22T08:37:35;8.30;;;7.60;;
363;SDS011;173;48.718;9.274;2022-07-22T08:40:08;7.90;;;7.30;;
363;SDS011;173;48.718;9.274;2022-07-22T08:42:41;9.15;;;8.30;;
363;SDS011;173;48.718;9.274;2022-07-22T08:45:16;6.90;;;6.40;;
363;SDS011;173;48.718;9.274;2022-07-22T08:47:49;9.40;;;8.05;;
363;SDS011;173;48.718;9.274;2022-07-22T08:50:25;7.30;;;6.70;;
363;SDS011;173;48.718;9.274;2022-07-22T08:52:58;7.60;;;7.00;;
363;SDS011;173;48.718;9.274;2022-07-22T08:55:30;8.20;;;7.50;;
363;SDS011;173;48.718;9.274;2022-07-22T08:58:02;8.57;;;7.80;;
363;SDS011;173;48.718;9.274;2022-07-22T09:00:34;7.80;;;7.00;;
363;SDS011;173;48.718;9.274;2022-07-22T09:05:55;8.10;;;7.40;;
363;SDS011;173;48.718;9.274;2022-07-22T09:08:27;9.30;;;8.20;;
363;SDS011;173;48.718;9.274;2022-07-22T09:10:59;8.20;;;7.50;;
363;SDS011;173;48.718;9.274;2022-07-22T09:13:46;7.40;;;6.70;;
363;SDS011;173;48.718;9.274;2022-07-22T09:16:16;7.05;;;6.55;;
363;SDS011;173;48.718;9.274;2022-07-22T09:19:10;7.95;;;7.25;;
363;SDS011;173;48.718;9.274;2022-07-22T09:21:45;6.85;;;6.35;;
363;SDS011;173;48.718;9.274;2022-07-22T09:24:27;7.90;;;7.20;;
363;SDS011;173;48.718;9.274;2022-07-22T09:27:00;6.60;;;6.00;;
363;SDS011;173;48.718;9.274;2022-07-22T09:29:32;7.70;;;7.10;;
363;SDS011;173;48.718;9.274;2022-07-22T09:32:06;8.15;;;7.30;;
363;SDS011;173;48.718;9.274;2022-07-22T09:34:38;8.00;;;7.40;;
363;SDS011;173;48.718;9.274;2022-07-22T09:37:10;7.75;;;7.20;;
363;SDS011;173;48.718;9.274;2022-07-22T09:39:43;7.60;;;6.90;;
363;SDS011;173;48.718;9.274;2022-07-22T09:42:15;7.90;;;7.30;;
363;SDS011;173;48.718;9.274;2022-07-22T09:44:46;7.00;;;6.50;;
363;SDS011;173;48.718;9.274;2022-07-22T09:47:28;7.90;;;7.20;;
363;SDS011;173;48.718;9.274;2022-07-22T09:50:00;8.60;;;7.90;;
363;SDS011;173;48.718;9.274;2022-07-22T09:52:35;9.70;;;7.30;;
363;SDS011;173;48.718;9.274;2022-07-22T09:55:08;7.90;;;7.30;;
363;SDS011;173;48.718;9.274;2022-07-22T09:57:44;9.10;;;6.70;;
363;SDS011;173;48.718;9.274;2022-07-22T10:00:19;6.60;;;6.10;;
363;SDS011;173;48.718;9.274;2022-07-22T10:02:54;7.80;;;7.10;;
363;SDS011;173;48.718;9.274;2022-07-22T10:05:34;6.20;;;5.70;;
363;SDS011;173;48.718;9.274;2022-07-22T10:08:08;7.20;;;6.60;;
363;SDS011;173;48.718;9.274;2022-07-22T10:10:41;6.90;;;6.40;;
363;SDS011;173;48.718;9.274;2022-07-22T10:13:13;7.05;;;6.50;;
363;SDS011;173;48.718;9.274;2022-07-22T10:15:47;7.00;;;6.40;;
363;SDS011;173;48.718;9.274;2022-07-22T10:18:19;7.30;;;6.70;;
363;SDS011;173;48.718;9.274;2022-07-22T10:21:06;7.80;;;7.30;;
363;SDS011;173;48.718;9.274;2022-07-22T10:26:48;8.50;;;7.70;;
363;SDS011;173;48.718;9.274;2022-07-22T10:29:27;7.85;;;7.20;;
363;SDS011;173;48.718;9.274;2022-07-22T10:37:40;7.80;;;7.20;;
363;SDS011;173;48.718;9.274;2022-07-22T10:40:14;7.40;;;6.80;;
363;SDS011;173;48.718;9.274;2022-07-22T10:45:42;6.60;;;6.10;;
363;SDS011;173;48.718;9.274;2022-07-22T10:48:19;6.97;;;6.47;;
363;SDS011;173;48.718;9.274;2022-07-22T10:50:52;6.80;;;6.30;;
363;SDS011;173;48.718;9.274;2022-07-22T10:53:57;6.60;;;6.10;;
363;SDS011;173;48.718;9.274;2022-07-22T10:56:33;7.25;;;6.75;;
363;SDS011;173;48.718;9.274;2022-07-22T11:01:47;7.10;;;6.60;;
363;SDS011;173;48.718;9.274;2022-07-22T11:04:29;6.45;;;6.05;;
363;SDS011;173;48.718;9.274;2022-07-22T11:06:56;7.30;;;6.70;;
363;SDS011;173;48.718;9.274;2022-07-22T11:09:32;6.50;;;5.90;;
363;SDS011;173;48.718;9.274;2022-07-22T11:12:06;6.43;;;5.90;;
363;SDS011;173;48.718;9.274;2022-07-22T11:14:44;6.70;;;6.20;;
363;SDS011;173;48.718;9.274;2022-07-22T11:17:16;6.40;;;5.90;;
363;SDS011;173;48.718;9.274;2022-07-22T11:19:50;6.80;;;6.20;;
363;SDS011;173;48.718;9.274;2022-07-22T11:22:22;6.50;;;6.00;;
363;SDS011;173;48.718;9.274;2022-07-22T11:24:54;6.50;;;6.10;;
363;SDS011;173;48.718;9.274;2022-07-22T11:27:31;6.80;;;6.10;;
363;SDS011;173;48.718;9.274;2022-07-22T11:30:04;6.80;;;6.30;;
363;SDS011;173;48.718;9.274;2022-07-22T11:32:49;6.30;;;5.70;;
363;SDS011;173;48.718;9.274;2022-07-22T11:35:21;6.40;;;5.90;;
363;SDS011;173;48.718;9.274;2022-07-22T11:37:56;6.70;;;6.10;;
363;SDS011;173;48.718;9.274;2022-07-22T11:40:33;6.95;;;6.45;;
363;SDS011;173;48.718;9.274;2022-07-22T11:43:05;6.40;;;5.90;;
363;SDS011;173;48.718;9.274;2022-07-22T11:45:54;7.50;;;7.00;;
363;SDS011;173;48.718;9.274;2022-07-22T11:48:23;5.60;;;5.20;;
363;SDS011;173;48.718;9.274;2022-07-22T11:50:59;6.60;;;6.10;;
363;SDS011;173;48.718;9.274;2022-07-22T11:53:36;6.60;;;6.10;;
363;SDS011;173;48.718;9.274;2022-07-22T11:56:10;6.05;;;5.60;;
363;SDS011;173;48.718;9.274;2022-07-22T11:58:44;5.80;;;5.40;;
363;SDS011;173;48.718;9.274;2022-07-22T12:01:22;5.90;;;5.40;;
363;SDS011;173;48.718;9.274;2022-07-22T12:04:00;6.35;;;5.85;;
363;SDS011;173;48.718;9.274;2022-07-22T12:06:36;6.00;;;5.60;;
363;SDS011;173;48.718;9.274;2022-07-22T12:09:14;6.10;;;5.70;;
363;SDS011;173;48.718;9.274;2022-07-22T12:11:53;6.60;;;6.10;;
363;SDS011;173;48.718;9.274;2022-07-22T12:14:27;5.90;;;5.40;;
363;SDS011;173;48.718;9.274;2022-07-22T12:17:08;6.00;;;5.50;;
363;SDS011;173;48.718;9.274;2022-07-22T12:19:41;7.00;;;6.30;;
363;SDS011;173;48.718;9.274;2022-07-22T12:22:20;6.60;;;6.10;;
363;SDS011;173;48.718;9.274;2022-07-22T12:25:00;5.80;;;5.40;;
363;SDS011;173;48.718;9.274;2022-07-22T12:27:33;5.60;;;5.20;;
363;SDS011;173;48.718;9.274;2022-07-22T12:30:15;6.20;;;5.80;;
363;SDS011;173;48.718;9.274;2022-07-22T12:32:46;6.40;;;5.85;;
363;SDS011;173;48.718;9.274;2022-07-22T12:35:18;6.30;;;5.90;;
363;SDS011;173;48.718;9.274;2022-07-22T12:37:52;5.90;;;5.50;;
363;SDS011;173;48.718;9.274;2022-07-22T12:40:24;5.85;;;5.45;;
363;SDS011;173;48.718;9.274;2022-07-22T12:43:10;6.10;;;5.70;;
363;SDS011;173;48.718;9.274;2022-07-22T12:45:43;6.00;;;5.50;;
363;SDS011;173;48.718;9.274;2022-07-22T12:48:15;6.70;;;6.20;;
363;SDS011;173;48.718;9.274;2022-07-22T12:50:58;6.50;;;5.90;;
363;SDS011;173;48.718;9.274;2022-07-22T12:53:30;5.85;;;5.55;;
363;SDS011;173;48.718;9.274;2022-07-22T12:56:02;5.90;;;5.60;;
363;SDS011;173;48.718;9.274;2022-07-22T12:58:36;6.10;;;5.70;;
363;SDS011;173;48.718;9.274;2022-07-22T13:01:09;6.00;;;5.60;;
363;SDS011;173;48.718;9.274;2022-07-22T13:03:41;6.05;;;5.65;;
363;SDS011;173;48.718;9.274;2022-07-22T13:06:13;6.45;;;5.90;;
363;SDS011;173;48.718;9.274;2022-07-22T13:08:45;5.75;;;5.35;;
363;SDS011;173;48.718;9.274;2022-07-22T13:11:17;4.70;;;4.40;;
363;SDS011;173;48.718;9.274;2022-07-22T13:13:49;5.85;;;5.35;;
363;SDS011;173;48.718;9.274;2022-07-22T13:16:21;8.00;;;6.30;;
363;SDS011;173;48.718;9.274;2022-07-22T13:18:53;5.20;;;4.90;;
363;SDS011;173;48.718;9.274;2022-07-22T13:21:25;5.70;;;5.40;;
363;SDS011;173;48.718;9.274;2022-07-22T13:23:57;5.40;;;5.00;;
363;SDS011;173;48.718;9.274;2022-07-22T13:26:29;5.50;;;5.20;;
363;SDS011;173;48.718;9.274;2022-07-22T13:29:01;5.00;;;4.70;;
363;SDS011;173;48.718;9.274;2022-07-22T13:31:33;5.70;;;5.30;;
363;SDS011;173;48.718;9.274;2022-07-22T13:34:05;5.35;;;5.05;;
363;SDS011;173;48.718;9.274;2022-07-22T13:36:37;6.15;;;5.65;;
363;SDS011;173;48.718;9.274;2022-07-22T13:39:09;5.40;;;5.00;;
363;SDS011;173;48.718;9.274;2022-07-22T13:41:42;5.20;;;4.90;;
363;SDS011;173;48.718;9.274;2022-07-22T13:44:14;4.95;;;4.55;;
363;SDS011;173;48.718;9.274;2022-07-22T13:46:46;5.20;;;4.80;;
363;SDS011;173;48.718;9.274;2022-07-22T13:49:18;5.40;;;5.00;;
363;SDS011;173;48.718;9.274;2022-07-22T13:51:50;4.70;;;4.30;;
363;SDS011;173;48.718;9.274;2022-07-22T13:54:22;5.60;;;5.20;;
363;SDS011;173;48.718;9.274;2022-07-22T13:56:54;5.70;;;5.30;;
363;SDS011;173;48.718;9.274;2022-07-22T13:59:27;5.80;;;5.40;;
363;SDS011;173;48.718;9.274;2022-07-22T14:01:59;4.85;;;4.55;;
363;SDS011;173;48.718;9.274;2022-07-22T14:04:31;5.10;;;4.80;;
363;SDS011;173;48.718;9.274;2022-07-22T14:07:03;5.10;;;4.70;;
363;SDS011;173;48.718;9.274;2022-07-22T14:09:35;5.10;;;4.80;;
363;SDS011;173;48.718;9.274;2022-07-22T14:12:08;5.40;;;5.10;;
363;SDS011;173;48.718;9.274;2022-07-22T14:14:40;4.60;;;4.30;;
363;SDS011;173;48.718;9.274;2022-07-22T14:17:12;5.60;;;5.10;;
363;SDS011;173;48.718;9.274;2022-07-22T14:19:44;4.80;;;4.50;;
363;SDS011;173;48.718;9.274;2022-07-22T14:22:16;4.70;;;4.40;;
363;SDS011;173;48.718;9.274;2022-07-22T14:24:48;5.30;;;4.90;;
363;SDS011;173;48.718;9.274;2022-07-22T14:27:34;4.60;;;4.30;;
363;SDS011;173;48.718;9.274;2022-07-22T14:30:07;6.00;;;5.60;;
363;SDS011;173;48.718;9.274;2022-07-22T14:32:39;4.80;;;4.50;;
363;SDS011;173;48.718;9.274;2022-07-22T14:35:09;4.65;;;4.35;;
363;SDS011;173;48.718;9.274;2022-07-22T14:37:41;5.70;;;5.40;;
363;SDS011;173;48.718;9.274;2022-07-22T14:40:13;4.90;;;4.60;;
363;SDS011;173;48.718;9.274;2022-07-22T14:42:45;4.70;;;4.40;;
363;SDS011;173;48.718;9.274;2022-07-22T14:45:17;5.00;;;4.60;;
363;SDS011;173;48.718;9.274;2022-07-22T14:47:49;5.30;;;5.00;;
363;SDS011;173;48.718;9.274;2022-07-22T14:50:21;5.00;;;4.70;;
363;SDS011;173;48.718;9.274;2022-07-22T14:52:53;5.25;;;4.90;;
363;SDS011;173;48.718;9.274;2022-07-22T14:55:27;4.80;;;4.50;;
363;SDS011;173;48.718;9.274;2022-07-22T14:57:59;4.60;;;4.40;;
363;SDS011;173;48.718;9.274;2022-07-22T15:00:31;4.95;;;4.65;;
363;SDS011;173;48.718;9.274;2022-07-22T15:03:03;5.20;;;4.90;;
363;SDS011;173;48.718;9.274;2022-07-22T15:05:35;5.25;;;4.95;;
363;SDS011;173;48.718;9.274;2022-07-22T15:08:08;4.30;;;4.10;;
363;SDS011;173;48.718;9.274;2022-07-22T15:10:41;4.80;;;4.40;;
363;SDS011;173;48.718;9.274;2022-07-22T15:13:13;4.40;;;4.20;;
363;SDS011;173;48.718;9.274;2022-07-22T15:15:46;5.60;;;5.20;;
363;SDS011;173;48.718;9.274;2022-07-22T15:18:18;4.90;;;4.60;;
363;SDS011;173;48.718;9.274;2022-07-22T15:20:50;4.90;;;4.60;;
363;SDS011;173;48.718;9.274;2022-07-22T15:23:23;4.80;;;4.50;;
363;SDS011;173;48.718;9.274;2022-07-22T15:25:56;6.10;;;4.95;;
363;SDS011;173;48.718;9.274;2022-07-22T15:28:29;4.90;;;4.60;;
363;SDS011;173;48.718;9.274;2022-07-22T15:31:03;4.70;;;4.40;;
363;SDS011;173;48.718;9.274;2022-07-22T15:33:37;4.65;;;4.35;;
363;SDS011;173;48.718;9.274;2022-07-22T15:36:09;5.80;;;5.40;;
363;SDS011;173;48.718;9.274;2022-07-22T15:38:41;5.25;;;4.75;;
363;SDS011;173;48.718;9.274;2022-07-22T15:41:14;5.20;;;4.90;;
363;SDS011;173;48.718;9.274;2022-07-22T15:43:46;5.00;;;4.70;;
363;SDS011;173;48.718;9.274;2022-07-22T15:46:16;5.20;;;4.90;;
363;SDS011;173;48.718;9.274;2022-07-22T15:48:48;4.50;;;4.30;;
363;SDS011;173;48.718;9.274;2022-07-22T15:51:20;4.80;;;4.50;;
363;SDS011;173;48.718;9.274;2022-07-22T15:53:52;4.85;;;4.60;;
363;SDS011;173;48.718;9.274;2022-07-22T15:56:24;5.20;;;4.90;;
363;SDS011;173;48.718;9.274;2022-07-22T15:58:56;5.70;;;4.80;;
363;SDS011;173;48.718;9.274;2022-07-22T16:01:46;5.60;;;5.10;;
363;SDS011;173;48.718;9.274;2022-07-22T16:04:18;5.10;;;4.80;;
363;SDS011;173;48.718;9.274;2022-07-22T16:06:50;5.40;;;5.00;;
363;SDS011;173;48.718;9.274;2022-07-22T16:09:22;5.10;;;4.80;;
363;SDS011;173;48.718;9.274;2022-07-22T16:11:54;4.90;;;4.50;;
363;SDS011;173;48.718;9.274;2022-07-22T16:14:27;5.20;;;4.80;;
363;SDS011;173;48.718;9.274;2022-07-22T16:16:59;5.95;;;5.35;;
363;SDS011;173;48.718;9.274;2022-07-22T16:19:30;5.35;;;4.85;;
363;SDS011;173;48.718;9.274;2022-07-22T16:22:02;5.40;;;5.00;;
363;SDS011;173;48.718;9.274;2022-07-22T16:24:34;5.30;;;4.80;;
363;SDS011;173;48.718;9.274;2022-07-22T16:27:06;5.00;;;4.70;;
363;SDS011;173;48.718;9.274;2022-07-22T16:29:38;6.00;;;5.50;;
363;SDS011;173;48.718;9.274;2022-07-22T16:32:10;8.00;;;5.90;;
363;SDS011;173;48.718;9.274;2022-07-22T16:34:42;5.80;;;5.40;;
363;SDS011;173;48.718;9.274;2022-07-22T16:37:14;6.60;;;4.80;;
363;SDS011;173;48.718;9.274;2022-07-22T16:39:51;5.90;;;5.40;;